Orla, Texas
Current Conditions -  °F | °C
As of 11:55 AM on Tuesday 21 Oct 2014 (Local Time) from KPEQ Reporting Station
Broken Clouds Broken Clouds  
Wind Chill: 68°   Ceiling: 2200
Heat Index: 68°   Visibility: 10mi
Dew Point: 62°   Wind: 14mph
Humidity: 79%   Direction: 110°ESE
Pressure: 30.09"   Gusts: NA
Location:  31.83°N, 103.91°W
Report Text: KPEQ 211655Z AUTO 11012KT 10SM SCT013 BKN022 BKN110 20/16 A3009 RMK AO2 T02010164
Loading
Personal Weather Stations






























Interactive Weather Map
Tropical Storm Tracking
New forecast layout! Learn more

10-Day Weather Forecast

Advertisements
Track Severe Weather on mobile